Time;durP1;ratioP1;P1;durP2;ratioP2;P2;SDS_P1;SDS_P2;PMS_P1;PMS_P2;Temp;Humidity;BMP_temperature;BMP_pressure;BME280_temperature;BME280_humidity;BME280_pressure;Samples;Min_cycle;Max_cycle;Signal;HPM_P1;HPM_P2
2022/03/26 00:01:10;;;;;;;34.03;18.55;;;5.10;99.90;;;;;;4912352;29;20546;-71
2022/03/26 00:03:41;;;;;;;28.17;18.10;;;5.00;99.90;;;;;;4914384;29;20052;-71
2022/03/26 00:06:09;;;;;;;26.23;17.65;;;4.90;99.90;;;;;;4913490;29;20452;-70
2022/03/26 00:08:40;;;;;;;32.50;19.67;;;4.90;99.90;;;;;;4899596;29;20036;-70
2022/03/26 00:11:12;;;;;;;37.60;19.45;;;4.80;99.90;;;;;;4899482;29;20055;-71
2022/03/26 00:13:44;;;;;;;34.70;20.30;;;4.80;99.90;;;;;;4913407;29;20120;-71
2022/03/26 00:16:16;;;;;;;30.90;18.65;;;4.80;99.90;;;;;;4913215;29;20130;-70
2022/03/26 00:18:47;;;;;;;35.92;20.20;;;4.80;99.90;;;;;;4914715;29;20051;-71
2022/03/26 00:21:20;;;;;;;30.80;19.27;;;4.80;99.90;;;;;;4914148;29;20044;-69
2022/03/26 00:23:52;;;;;;;27.73;17.95;;;4.80;99.90;;;;;;4915836;29;20410;-71
2022/03/26 00:26:24;;;;;;;29.75;19.25;;;4.70;99.90;;;;;;4914505;29;20037;-71
2022/03/26 00:28:56;;;;;;;32.55;18.52;;;4.70;99.90;;;;;;4914740;29;20063;-71
2022/03/26 00:31:29;;;;;;;29.75;17.48;;;4.60;99.90;;;;;;4913881;29;20543;-71
2022/03/26 00:34:01;;;;;;;30.63;18.38;;;4.50;99.90;;;;;;4914484;29;20055;-71
2022/03/26 00:36:33;;;;;;;31.48;19.35;;;4.40;99.90;;;;;;4915619;29;20086;-71
2022/03/26 00:39:05;;;;;;;32.78;19.38;;;4.40;99.90;;;;;;4914480;29;20058;-71
2022/03/26 00:41:37;;;;;;;30.83;18.65;;;4.30;99.90;;;;;;4915024;29;20507;-71
2022/03/26 00:44:09;;;;;;;29.83;18.42;;;4.20;99.90;;;;;;4914306;29;20079;-71
2022/03/26 00:46:41;;;;;;;38.35;22.05;;;4.10;99.90;;;;;;4915511;29;20071;-71
2022/03/26 00:49:08;;;;;;;38.45;23.42;;;4.10;99.90;;;;;;4914382;29;20044;-71
2022/03/26 00:51:40;;;;;;;31.75;19.50;;;4.10;99.90;;;;;;4898558;29;20050;-71
2022/03/26 00:54:12;;;;;;;29.40;18.25;;;4.00;99.90;;;;;;4899004;29;20059;-70
2022/03/26 00:56:44;;;;;;;30.65;19.13;;;4.00;99.90;;;;;;4913986;29;20048;-71
2022/03/26 00:59:15;;;;;;;34.30;22.15;;;4.00;99.90;;;;;;4914226;29;20070;-71
2022/03/26 01:01:48;;;;;;;27.88;19.75;;;4.10;99.90;;;;;;4914653;29;20069;-71
2022/03/26 01:04:19;;;;;;;31.05;20.70;;;4.10;99.90;;;;;;4913962;29;20082;-70
2022/03/26 01:06:51;;;;;;;34.78;20.50;;;4.10;99.90;;;;;;4913785;29;20172;-71
2022/03/26 01:09:23;;;;;;;30.02;18.20;;;4.00;99.90;;;;;;4898835;29;20056;-71
2022/03/26 01:11:55;;;;;;;32.83;19.50;;;4.00;99.90;;;;;;4914171;29;20059;-71
2022/03/26 01:14:27;;;;;;;34.15;18.83;;;4.00;99.90;;;;;;4913877;29;20044;-71
2022/03/26 01:16:58;;;;;;;30.92;18.90;;;4.00;99.90;;;;;;4915113;29;20056;-71
2022/03/26 01:19:30;;;;;;;35.15;20.40;;;4.00;99.90;;;;;;4915021;29;20048;-71
2022/03/26 01:22:02;;;;;;;31.48;20.48;;;4.00;99.90;;;;;;4913280;29;20055;-71
2022/03/26 01:24:34;;;;;;;31.88;19.40;;;4.00;99.90;;;;;;4913497;29;20090;-71
2022/03/26 01:27:07;;;;;;;33.95;19.45;;;4.00;99.90;;;;;;4914883;29;20739;-71
2022/03/26 01:29:40;;;;;;;35.78;20.08;;;3.90;99.90;;;;;;4912937;29;20420;-70
2022/03/26 01:32:12;;;;;;;;;;;3.70;99.90;;;;;;4913682;29;20040;-71
2022/03/26 01:34:44;;;;;;;33.63;19.83;;;3.80;99.90;;;;;;4913579;29;19923;-71
2022/03/26 01:37:16;;;;;;;38.90;20.70;;;3.80;99.90;;;;;;4914635;29;20066;-71
2022/03/26 01:39:48;;;;;;;33.42;20.70;;;3.80;99.90;;;;;;4898499;29;20052;-71
2022/03/26 01:42:20;;;;;;;35.35;20.98;;;3.90;99.90;;;;;;4897980;29;20044;-70
2022/03/26 01:44:52;;;;;;;33.28;21.27;;;3.90;99.90;;;;;;4913398;29;20506;-71
2022/03/26 01:47:24;;;;;;;35.75;20.80;;;3.90;99.90;;;;;;4913354;29;20086;-71
2022/03/26 01:49:51;;;;;;;29.77;18.98;;;3.90;99.90;;;;;;4914602;29;20044;-71
2022/03/26 01:52:23;;;;;;;33.00;21.20;;;3.80;99.90;;;;;;4913048;29;20044;-71
2022/03/26 01:54:54;;;;;;;31.70;19.35;;;3.80;99.90;;;;;;4914707;29;20052;-71
2022/03/26 01:57:28;;;;;;;34.65;21.10;;;3.70;99.90;;;;;;4913521;29;20052;-71
2022/03/26 02:00:01;;;;;;;34.08;20.65;;;3.70;99.90;;;;;;4913086;29;20048;-71
2022/03/26 02:02:43;;;;;;;35.88;18.92;;;3.60;99.90;;;;;;4913302;29;20074;-71
2022/03/26 02:05:18;;;;;;;33.25;19.52;;;3.50;99.90;;;;;;4912227;29;20059;-70
2022/03/26 02:07:51;;;;;;;34.70;19.73;;;3.50;99.90;;;;;;4912650;29;20067;-71
2022/03/26 02:10:22;;;;;;;31.25;19.10;;;3.40;99.90;;;;;;4912709;29;20048;-71
2022/03/26 02:12:54;;;;;;;34.30;19.38;;;3.40;99.90;;;;;;4911998;29;20052;-71
2022/03/26 02:15:26;;;;;;;35.97;20.05;;;3.40;99.90;;;;;;4897359;29;20503;-71
2022/03/26 02:17:58;;;;;;;33.88;20.35;;;3.40;99.90;;;;;;4897371;29;20047;-71
2022/03/26 02:20:25;;;;;;;34.28;20.77;;;3.30;99.90;;;;;;4896783;29;20048;-71
2022/03/26 02:22:57;;;;;;;33.67;19.40;;;3.40;99.90;;;;;;4897326;29;20066;-71
2022/03/26 02:25:29;;;;;;;32.65;18.77;;;3.30;99.90;;;;;;4915752;29;20071;-71
2022/03/26 02:28:00;;;;;;;34.30;19.80;;;3.20;99.90;;;;;;4915809;29;20044;-71
2022/03/26 02:30:27;;;;;;;32.80;18.13;;;3.20;99.90;;;;;;4917212;29;20047;-71
2022/03/26 02:32:59;;;;;;;35.05;19.75;;;3.20;99.90;;;;;;4916565;29;20048;-70
2022/03/26 02:35:31;;;;;;;35.03;20.27;;;3.20;99.90;;;;;;4917104;29;20058;-71
2022/03/26 02:38:03;;;;;;;33.78;19.55;;;3.20;99.90;;;;;;4900905;29;20400;-71
2022/03/26 02:40:35;;;;;;;33.00;19.88;;;3.20;99.90;;;;;;4916056;29;20048;-71
2022/03/26 02:43:07;;;;;;;36.45;21.63;;;3.20;99.90;;;;;;4915194;29;20165;-71
2022/03/26 02:45:44;;;;;;;34.05;18.55;;;3.20;99.90;;;;;;4915751;29;20040;-71
2022/03/26 02:48:15;;;;;;;32.13;18.23;;;3.20;99.90;;;;;;4915678;29;20064;-71
2022/03/26 02:50:47;;;;;;;34.30;20.20;;;3.20;99.90;;;;;;4916930;29;20041;-71
2022/03/26 02:53:19;;;;;;;36.60;21.35;;;3.20;99.90;;;;;;4916649;29;20103;-71
2022/03/26 02:55:52;;;;;;;32.03;19.95;;;3.10;99.90;;;;;;4915441;29;20051;-71
2022/03/26 02:58:24;;;;;;;29.90;19.17;;;3.00;99.90;;;;;;4915324;29;20081;-71
2022/03/26 03:00:57;;;;;;;33.42;20.55;;;2.90;99.90;;;;;;4914947;29;20086;-71
2022/03/26 03:03:29;;;;;;;38.72;20.75;;;2.80;99.90;;;;;;4916380;29;20044;-71
2022/03/26 03:06:01;;;;;;;33.83;19.73;;;2.80;99.90;;;;;;4915273;29;20044;-71
2022/03/26 03:08:33;;;;;;;32.28;19.27;;;2.70;99.90;;;;;;4915043;29;20048;-71
2022/03/26 03:11:05;;;;;;;34.17;19.38;;;2.70;99.90;;;;;;4914610;29;20048;-71
2022/03/26 03:13:38;;;;;;;30.17;19.25;;;2.90;99.90;;;;;;4915009;29;20094;-71
2022/03/26 03:16:05;;;;;;;32.85;19.67;;;2.80;99.90;;;;;;4916336;29;20048;-71
2022/03/26 03:18:32;;;;;;;35.83;19.63;;;2.80;99.90;;;;;;4914851;29;20052;-71
2022/03/26 03:21:03;;;;;;;34.58;20.52;;;2.70;99.90;;;;;;4914717;29;20048;-71
2022/03/26 03:23:35;;;;;;;32.67;20.88;;;2.70;99.90;;;;;;4899775;29;20530;-71
2022/03/26 03:26:07;;;;;;;35.92;20.83;;;2.60;99.90;;;;;;4915059;29;20052;-71
2022/03/26 03:28:39;;;;;;;38.63;20.90;;;2.60;99.90;;;;;;4915968;29;20063;-71
2022/03/26 03:31:11;;;;;;;37.20;20.08;;;2.60;99.90;;;;;;4914620;29;20522;-71
2022/03/26 03:33:42;;;;;;;37.05;21.88;;;2.60;99.90;;;;;;4915461;29;20080;-71
2022/03/26 03:36:14;;;;;;;40.08;22.27;;;2.60;99.90;;;;;;4914757;29;20044;-71
2022/03/26 03:38:46;;;;;;;38.85;21.00;;;2.60;99.90;;;;;;4914530;29;20155;-71
2022/03/26 03:41:18;;;;;;;35.25;20.83;;;2.70;99.90;;;;;;4914330;29;20040;-71
2022/03/26 03:43:49;;;;;;;34.88;21.33;;;2.70;99.90;;;;;;4899668;29;20048;-71
2022/03/26 03:46:21;;;;;;;35.67;20.85;;;2.70;99.90;;;;;;4914468;29;20503;-71
2022/03/26 03:48:53;;;;;;;37.10;21.08;;;2.70;99.90;;;;;;4915648;29;20040;-71
2022/03/26 03:51:19;;;;;;;36.97;21.30;;;2.60;99.90;;;;;;4915150;29;20036;-71
2022/03/26 03:53:51;;;;;;;41.03;20.95;;;2.60;99.90;;;;;;4914416;29;20574;-70
2022/03/26 03:56:23;;;;;;;39.97;20.75;;;2.60;99.90;;;;;;4899310;29;20150;-71
2022/03/26 03:58:56;;;;;;;38.88;19.73;;;2.60;99.90;;;;;;4915680;29;20115;-71
2022/03/26 04:01:27;;;;;;;38.03;21.20;;;2.60;99.90;;;;;;4915214;29;20048;-71
2022/03/26 04:03:59;;;;;;;36.25;20.42;;;2.60;99.90;;;;;;4914169;29;20147;-71
2022/03/26 04:06:31;;;;;;;39.40;21.05;;;2.60;99.90;;;;;;4914123;29;20054;-71
2022/03/26 04:09:03;;;;;;;33.67;19.45;;;2.60;99.90;;;;;;4914071;29;20068;-71
2022/03/26 04:11:35;;;;;;;34.53;19.75;;;2.50;99.90;;;;;;4913538;29;20071;-71
2022/03/26 04:14:06;;;;;;;39.63;20.85;;;2.50;99.90;;;;;;4914368;29;20062;-71
2022/03/26 04:16:38;;;;;;;34.50;19.75;;;2.50;99.90;;;;;;4916056;29;20044;-71
2022/03/26 04:19:11;;;;;;;31.70;18.92;;;2.50;99.90;;;;;;4915818;29;20082;-71
2022/03/26 04:21:37;;;;;;;36.53;19.98;;;2.40;99.90;;;;;;4913995;29;20044;-71
2022/03/26 04:24:09;;;;;;;32.67;18.77;;;2.40;99.90;;;;;;4914749;29;20420;-71
2022/03/26 04:26:41;;;;;;;35.30;19.17;;;2.40;99.90;;;;;;4914517;29;20042;-71
2022/03/26 04:29:13;;;;;;;32.35;18.50;;;2.30;99.90;;;;;;4914514;29;20044;-71
2022/03/26 04:31:39;;;;;;;31.92;17.10;;;2.20;99.90;;;;;;4898354;29;20507;-71
2022/03/26 04:34:11;;;;;;;34.45;19.05;;;2.20;99.90;;;;;;4915224;29;20418;-71
2022/03/26 04:36:43;;;;;;;36.67;21.33;;;2.10;99.90;;;;;;4907607;29;20047;-71
2022/03/26 04:39:14;;;;;;;39.08;21.98;;;2.00;99.90;;;;;;4920598;29;20043;-71
2022/03/26 04:41:47;;;;;;;42.88;21.52;;;2.00;99.90;;;;;;4923420;29;20073;-71
2022/03/26 04:44:19;;;;;;;35.85;19.65;;;1.90;99.90;;;;;;4924595;29;20071;-71
2022/03/26 04:46:50;;;;;;;43.22;22.23;;;1.90;99.90;;;;;;4929791;29;20075;-71
2022/03/26 04:49:22;;;;;;;40.53;23.30;;;1.80;99.90;;;;;;4931449;29;20068;-71
2022/03/26 04:51:49;;;;;;;45.50;23.15;;;1.70;99.90;;;;;;4929891;29;20062;-70
2022/03/26 04:54:21;;;;;;;45.58;23.10;;;1.70;99.90;;;;;;4930594;29;20043;-71
2022/03/26 04:56:52;;;;;;;39.53;21.15;;;1.60;99.90;;;;;;4925264;29;20067;-71
2022/03/26 04:59:24;;;;;;;42.33;22.08;;;1.60;99.90;;;;;;4914797;29;20048;-70
2022/03/26 05:01:51;;;;;;;36.85;21.27;;;1.70;99.90;;;;;;4916312;29;20056;-71
2022/03/26 05:04:22;;;;;;;38.65;20.98;;;1.80;99.90;;;;;;4932748;29;20043;-70
2022/03/26 05:06:54;;;;;;;40.53;20.38;;;1.70;99.90;;;;;;4908708;29;20048;-71
2022/03/26 05:09:26;;;;;;;34.88;19.63;;;1.80;99.90;;;;;;4917862;29;20054;-71
2022/03/26 05:11:57;;;;;;;36.25;19.30;;;1.90;99.90;;;;;;4932327;29;20495;-71
2022/03/26 05:14:29;;;;;;;32.90;19.02;;;1.90;99.90;;;;;;4915715;29;20055;-70
2022/03/26 05:17:02;;;;;;;34.38;17.98;;;1.80;99.90;;;;;;4933908;29;20070;-71
2022/03/26 05:19:33;;;;;;;34.97;19.70;;;1.80;99.90;;;;;;4932756;29;20079;-70
2022/03/26 05:22:05;;;;;;;34.70;18.35;;;1.70;99.90;;;;;;4932213;29;20131;-71
2022/03/26 05:24:37;;;;;;;32.65;18.48;;;1.70;99.90;;;;;;4933901;29;20054;-71
2022/03/26 05:27:10;;;;;;;44.30;21.63;;;1.70;99.90;;;;;;4917443;29;20562;-71
2022/03/26 05:29:42;;;;;;;39.67;19.25;;;1.80;99.90;;;;;;4917705;29;20067;-71
2022/03/26 05:32:09;;;;;;;36.38;18.50;;;1.80;99.90;;;;;;4931778;29;20046;-70
2022/03/26 05:34:40;;;;;;;37.22;18.30;;;1.80;99.90;;;;;;4932634;29;20039;-71
2022/03/26 05:37:13;;;;;;;32.83;17.80;;;1.80;99.90;;;;;;4933739;29;20127;-71
2022/03/26 05:39:45;;;;;;;33.97;19.55;;;1.70;99.90;;;;;;4932447;29;20067;-71
2022/03/26 05:42:18;;;;;;;43.50;20.10;;;1.70;99.90;;;;;;4931838;29;20107;-71
2022/03/26 05:44:49;;;;;;;38.63;20.00;;;1.70;99.90;;;;;;4917401;29;20090;-71
2022/03/26 05:47:23;;;;;;;40.08;21.00;;;1.70;99.90;;;;;;4932569;29;20066;-71
2022/03/26 05:49:55;;;;;;;35.75;18.92;;;1.70;99.90;;;;;;4933765;29;20048;-71
2022/03/26 05:52:27;;;;;;;42.97;22.88;;;1.70;99.90;;;;;;4931925;29;20066;-71
2022/03/26 05:54:59;;;;;;;40.72;22.75;;;1.70;99.90;;;;;;4932369;29;20058;-71
2022/03/26 05:57:30;;;;;;;45.30;23.45;;;1.60;99.90;;;;;;4933427;29;20056;-70
2022/03/26 06:00:04;;;;;;;53.42;24.88;;;1.70;99.90;;;;;;4936471;29;20055;-71
2022/03/26 06:02:33;;;;;;;48.65;23.15;;;1.70;99.90;;;;;;4935670;29;20059;-71
2022/03/26 06:05:05;;;;;;;54.47;26.52;;;1.60;99.90;;;;;;4936213;29;20082;-71
2022/03/26 06:07:37;;;;;;;47.45;25.30;;;1.60;99.90;;;;;;4936070;29;20103;-71
2022/03/26 06:10:04;;;;;;;49.63;26.50;;;1.60;99.90;;;;;;4937467;29;20495;-71
2022/03/26 06:12:36;;;;;;;42.78;23.10;;;1.60;99.90;;;;;;4920683;29;20474;-71
2022/03/26 06:15:03;;;;;;;49.08;23.33;;;1.70;99.90;;;;;;4935908;29;20094;-72
2022/03/26 06:17:35;;;;;;;45.42;23.98;;;1.60;99.90;;;;;;4937211;29;20402;-71
2022/03/26 06:20:07;;;;;;;48.53;24.17;;;1.70;99.90;;;;;;4935986;29;20487;-71
2022/03/26 06:22:39;;;;;;;54.95;27.50;;;1.70;99.90;;;;;;4935186;29;20054;-71
2022/03/26 06:25:10;;;;;;;63.13;31.48;;;1.80;99.90;;;;;;4920549;29;20073;-71
2022/03/26 06:27:42;;;;;;;52.20;29.63;;;1.90;99.90;;;;;;4935716;29;20051;-71
2022/03/26 06:30:15;;;;;;;61.45;32.08;;;1.90;99.90;;;;;;4935851;29;20048;-71
2022/03/26 06:32:47;;;;;;;56.95;31.25;;;2.00;99.90;;;;;;4936339;29;20048;-72
2022/03/26 06:35:19;;;;;;;58.75;31.35;;;2.10;99.90;;;;;;4936802;29;20061;-72
2022/03/26 06:37:50;;;;;;;61.78;31.08;;;2.20;99.90;;;;;;4935414;29;20586;-71
2022/03/26 06:40:17;;;;;;;61.60;31.13;;;2.30;99.90;;;;;;4935461;29;20138;-71
2022/03/26 06:42:49;;;;;;;63.08;31.33;;;2.40;99.90;;;;;;4934907;29;20475;-71
2022/03/26 06:45:21;;;;;;;55.35;29.67;;;2.50;99.90;;;;;;4920229;29;20108;-71
2022/03/26 06:47:52;;;;;;;51.45;30.17;;;2.50;99.90;;;;;;4935477;29;20054;-71
2022/03/26 06:50:19;;;;;;;46.08;23.92;;;2.60;99.90;;;;;;4935410;29;20044;-72
2022/03/26 06:52:52;;;;;;;46.08;24.98;;;2.60;99.90;;;;;;4934772;29;20044;-71
2022/03/26 06:55:18;;;;;;;43.30;24.40;;;2.60;99.90;;;;;;4919499;29;20134;-70
2022/03/26 06:57:50;;;;;;;44.20;24.67;;;2.70;99.90;;;;;;4936350;29;20043;-72
2022/03/26 07:00:22;;;;;;;48.83;26.83;;;2.70;99.90;;;;;;4935274;29;20040;-72
2022/03/26 07:02:53;;;;;;;47.35;26.33;;;2.70;99.90;;;;;;4934651;29;20459;-70
2022/03/26 07:05:25;;;;;;;52.28;28.80;;;2.80;99.90;;;;;;4935066;29;20066;-70
2022/03/26 07:07:57;;;;;;;51.47;27.08;;;2.90;99.90;;;;;;4919760;29;20046;-70
2022/03/26 07:10:29;;;;;;;52.88;31.17;;;3.00;99.90;;;;;;4919364;29;20058;-71
2022/03/26 07:13:00;;;;;;;42.83;26.90;;;3.10;99.90;;;;;;4935559;29;20130;-71
2022/03/26 07:15:28;;;;;;;52.47;28.40;;;3.20;99.90;;;;;;4934940;29;20494;-71
2022/03/26 07:18:00;;;;;;;50.03;28.90;;;3.30;99.90;;;;;;4914961;29;20040;-71
2022/03/26 07:20:32;;;;;;;61.38;34.67;;;3.30;99.90;;;;;;4915875;29;20060;-71
2022/03/26 07:23:04;;;;;;;50.10;28.63;;;3.40;99.90;;;;;;4913935;29;20533;-71
2022/03/26 07:25:36;;;;;;;50.20;25.42;;;3.50;99.90;;;;;;4929878;29;20044;-71
2022/03/26 07:28:08;;;;;;;47.08;25.25;;;3.70;99.90;;;;;;4935982;29;20075;-71
2022/03/26 07:30:39;;;;;;;45.38;25.48;;;3.80;99.90;;;;;;4931202;29;20126;-70
2022/03/26 07:33:11;;;;;;;43.78;24.58;;;3.90;99.90;;;;;;4916045;29;20043;-71
2022/03/26 07:35:44;;;;;;;44.70;24.55;;;4.00;99.90;;;;;;4931143;29;20118;-71
2022/03/26 07:38:12;;;;;;;43.63;24.83;;;4.10;99.90;;;;;;4931264;29;20383;-71
2022/03/26 07:40:44;;;;;;;47.73;24.03;;;4.20;99.90;;;;;;4932013;29;20059;-71
2022/03/26 07:43:15;;;;;;;43.25;24.70;;;4.30;99.90;;;;;;4932168;29;20047;-71
2022/03/26 07:45:47;;;;;;;49.60;25.73;;;4.50;99.90;;;;;;4916243;29;20091;-71
2022/03/26 07:48:19;;;;;;;44.28;25.40;;;4.60;99.90;;;;;;4931120;29;20127;-71
2022/03/26 07:50:51;;;;;;;51.80;29.08;;;4.70;99.90;;;;;;4931036;29;20068;-71
2022/03/26 07:53:25;;;;;;;52.50;29.23;;;4.90;99.90;;;;;;4916436;29;20110;-71
2022/03/26 07:55:57;;;;;;;47.25;24.08;;;5.00;99.90;;;;;;4928798;29;20110;-71
2022/03/26 07:58:29;;;;;;;39.15;23.90;;;5.20;99.90;;;;;;4931072;29;20071;-69
2022/03/26 08:01:01;;;;;;;47.55;26.40;;;5.30;99.90;;;;;;4930501;29;20051;-71
2022/03/26 08:03:33;;;;;;;44.85;23.42;;;5.50;99.90;;;;;;4928434;29;20051;-70
2022/03/26 08:06:05;;;;;;;41.97;24.73;;;5.70;99.90;;;;;;4929950;29;20047;-71
2022/03/26 08:08:37;;;;;;;41.88;24.00;;;5.80;99.90;;;;;;4924486;29;20046;-70
2022/03/26 08:11:08;;;;;;;45.83;24.13;;;6.00;99.90;;;;;;4929863;29;20482;-70
2022/03/26 08:13:40;;;;;;;46.38;24.77;;;6.20;99.90;;;;;;4931716;29;20541;-70
2022/03/26 08:16:12;;;;;;;39.60;23.17;;;6.40;99.90;;;;;;4932947;29;20142;-70
2022/03/26 08:18:44;;;;;;;53.53;25.58;;;6.60;99.90;;;;;;4933926;29;20052;-70
2022/03/26 08:21:17;;;;;;;42.38;24.77;;;6.80;99.90;;;;;;4932601;29;20107;-70
2022/03/26 08:23:49;;;;;;;39.75;22.77;;;7.00;99.90;;;;;;4934808;29;20044;-70
2022/03/26 08:26:26;;;;;;;39.88;23.40;;;7.20;99.90;;;;;;4933319;29;20052;-69
2022/03/26 08:29:00;;;;;;;44.30;23.58;;;7.40;99.90;;;;;;4917837;29;20048;-71
2022/03/26 08:31:33;;;;;;;44.10;22.83;;;7.70;99.90;;;;;;4930652;29;20714;-71
2022/03/26 08:34:04;;;;;;;45.22;23.45;;;7.90;99.90;;;;;;4915538;29;20044;-71
2022/03/26 08:36:37;;;;;;;54.22;26.95;;;8.10;99.90;;;;;;4915529;29;20138;-71
2022/03/26 08:39:09;;;;;;;46.42;23.63;;;8.30;99.90;;;;;;4931036;29;20043;-71
2022/03/26 08:41:36;;;;;;;45.70;24.88;;;8.50;99.90;;;;;;4931656;29;20210;-72
2022/03/26 08:44:08;;;;;;;38.50;23.38;;;8.70;99.90;;;;;;4931057;29;20054;-71
2022/03/26 08:46:40;;;;;;;40.47;23.35;;;8.90;99.90;;;;;;4932217;29;20067;-71
2022/03/26 08:49:11;;;;;;;43.17;23.67;;;9.00;99.90;;;;;;4934311;29;20048;-71
2022/03/26 08:51:43;;;;;;;42.85;24.30;;;9.20;99.90;;;;;;4932809;29;20090;-71
2022/03/26 08:54:10;;;;;;;40.85;23.30;;;9.40;99.90;;;;;;4933025;29;20451;-71
2022/03/26 08:56:42;;;;;;;45.60;24.05;;;9.60;99.90;;;;;;4934150;29;20047;-71
2022/03/26 08:59:14;;;;;;;44.90;23.63;;;9.70;99.90;;;;;;4932779;29;20549;-70
2022/03/26 09:01:40;;;;;;;45.67;24.38;;;9.90;99.40;;;;;;4916680;29;20051;-71
2022/03/26 09:04:14;;;;;;;39.53;23.65;;;10.00;99.20;;;;;;4932847;29;20051;-70
2022/03/26 09:06:46;;;;;;;46.88;23.88;;;10.20;98.00;;;;;;4932968;29;20071;-71
2022/03/26 09:09:17;;;;;;;42.05;24.45;;;10.40;96.80;;;;;;4932756;29;20039;-71
2022/03/26 09:11:49;;;;;;;37.05;22.45;;;10.50;95.70;;;;;;4932147;29;20554;-72
2022/03/26 09:14:21;;;;;;;41.25;24.33;;;10.70;94.60;;;;;;4917564;29;20039;-71
2022/03/26 09:16:53;;;;;;;45.22;24.33;;;10.80;93.70;;;;;;4932676;29;20043;-70
2022/03/26 09:19:24;;;;;;;43.28;23.30;;;11.00;92.90;;;;;;4932597;29;20074;-72
2022/03/26 09:21:56;;;;;;;40.22;23.70;;;11.10;92.70;;;;;;4917200;29;20134;-71
2022/03/26 09:24:28;;;;;;;41.72;25.33;;;11.20;91.60;;;;;;4926356;29;20040;-71
2022/03/26 09:27:00;;;;;;;45.15;23.90;;;11.30;91.00;;;;;;4913841;29;20040;-71
2022/03/26 09:29:27;;;;;;;40.42;22.70;;;11.50;90.10;;;;;;4912416;29;20044;-71
2022/03/26 09:31:59;;;;;;;45.63;26.33;;;11.70;91.70;;;;;;4911151;29;20047;-71
2022/03/26 09:34:31;;;;;;;42.53;23.35;;;11.80;89.60;;;;;;4911643;29;20044;-71
2022/03/26 09:37:03;;;;;;;43.95;24.92;;;11.90;89.80;;;;;;4917823;29;20051;-71
2022/03/26 09:39:30;;;;;;;40.97;23.33;;;12.10;88.90;;;;;;4919587;29;20047;-71
2022/03/26 09:42:04;;;;;;;49.90;26.08;;;12.20;86.10;;;;;;4919272;29;20068;-71
2022/03/26 09:44:36;;;;;;;44.25;24.90;;;12.30;85.20;;;;;;4918960;29;20552;-73
2022/03/26 09:47:09;;;;;;;37.60;23.35;;;12.40;85.60;;;;;;4924327;29;20046;-70
2022/03/26 09:49:41;;;;;;;38.35;23.42;;;12.50;84.90;;;;;;4902924;29;20040;-71
2022/03/26 09:52:08;;;;;;;39.78;23.48;;;12.70;83.70;;;;;;4915724;29;20048;-70
2022/03/26 09:54:40;;;;;;;40.72;24.23;;;12.80;80.90;;;;;;4919049;29;20036;-70
2022/03/26 09:57:12;;;;;;;41.08;24.20;;;12.90;80.40;;;;;;4916318;29;20050;-71
2022/03/26 09:59:43;;;;;;;44.17;25.02;;;13.00;79.70;;;;;;4917271;29;20039;-70
2022/03/26 10:02:10;;;;;;;39.83;24.95;;;13.10;79.70;;;;;;4918431;29;20048;-70
2022/03/26 10:04:43;;;;;;;38.60;23.40;;;13.20;79.20;;;;;;4914177;29;20418;-70
2022/03/26 10:07:15;;;;;;;40.15;25.10;;;13.20;79.10;;;;;;4920314;29;20495;-71
2022/03/26 10:09:46;;;;;;;42.88;23.52;;;13.30;79.50;;;;;;4923148;29;20042;-71
2022/03/26 10:12:21;;;;;;;37.70;23.15;;;13.40;78.80;;;;;;4916865;29;20075;-71
2022/03/26 10:14:57;;;;;;;39.28;24.15;;;13.50;77.20;;;;;;4918650;29;20046;-71
2022/03/26 10:17:35;;;;;;;44.60;24.42;;;13.60;76.80;;;;;;4901608;29;20059;-71
2022/03/26 10:20:10;;;;;;;41.85;25.92;;;13.80;75.70;;;;;;4915647;29;20598;-71
2022/03/26 10:22:50;;;;;;;39.25;24.08;;;13.80;74.70;;;;;;4923211;29;20047;-71
2022/03/26 10:25:23;;;;;;;41.88;25.42;;;13.90;73.80;;;;;;4910466;29;20720;-71
2022/03/26 10:27:56;;;;;;;41.33;24.95;;;14.00;74.90;;;;;;4911336;29;20043;-71
2022/03/26 10:33:27;;;;;;;41.20;24.48;;;14.20;74.60;;;;;;4910666;29;20048;-71
2022/03/26 10:36:03;;;;;;;40.75;25.23;;;14.30;75.70;;;;;;4912788;29;20059;-72
2022/03/26 10:38:42;;;;;;;41.17;24.08;;;14.50;74.50;;;;;;4913661;29;20103;-72
2022/03/26 10:41:14;;;;;;;41.58;23.98;;;14.60;73.50;;;;;;4912350;29;20080;-72
2022/03/26 10:43:45;;;;;;;41.83;25.63;;;14.70;72.10;;;;;;4897583;29;20579;-73
2022/03/26 10:46:12;;;;;;;42.70;23.95;;;14.80;71.30;;;;;;4917598;29;20054;-73
2022/03/26 10:48:44;;;;;;;42.38;23.75;;;14.80;69.70;;;;;;4917331;29;20115;-73
2022/03/26 10:51:15;;;;;;;44.83;26.00;;;14.90;71.00;;;;;;4915732;29;20032;-72
2022/03/26 10:53:49;;;;;;;41.97;26.17;;;15.00;69.20;;;;;;4915797;29;20040;-72
2022/03/26 10:56:22;;;;;;;42.35;24.77;;;15.10;67.60;;;;;;4901203;29;20119;-72
2022/03/26 10:58:54;;;;;;;43.90;23.90;;;15.20;66.90;;;;;;4916057;29;20044;-72
2022/03/26 11:01:26;;;;;;;38.30;23.77;;;15.20;65.50;;;;;;4914758;29;20127;-72
2022/03/26 11:03:57;;;;;;;38.85;24.85;;;15.40;66.90;;;;;;4915947;29;20746;-73
2022/03/26 11:06:37;;;;;;;40.35;25.13;;;15.50;66.50;;;;;;4915679;29;20094;-72
2022/03/26 11:09:09;;;;;;;40.33;25.38;;;15.60;66.10;;;;;;4916922;29;20055;-71
2022/03/26 11:11:45;;;;;;;40.28;24.90;;;15.80;66.40;;;;;;4915684;29;20047;-72
2022/03/26 11:14:33;;;;;;;39.42;24.75;;;15.90;63.20;;;;;;4896520;29;20136;-72
2022/03/26 11:17:14;;;;;;;41.13;25.73;;;15.90;62.50;;;;;;4897866;29;20047;-73
2022/03/26 11:20:19;;;;;;;48.13;25.33;;;16.10;63.80;;;;;;4897354;29;20074;-72
2022/03/26 11:23:22;;;;;;;39.25;24.65;;;16.20;62.70;;;;;;4897203;29;20072;-72
2022/03/26 11:26:39;;;;;;;37.97;24.27;;;16.30;60.80;;;;;;4896463;29;20416;-72
2022/03/26 11:29:10;;;;;;;43.00;24.95;;;16.40;59.70;;;;;;4890961;29;20400;-72
2022/03/26 11:32:14;;;;;;;36.13;23.77;;;16.50;59.70;;;;;;4913519;29;20579;-72
2022/03/26 11:34:57;;;;;;;37.60;24.35;;;16.60;60.20;;;;;;4914984;29;20050;-72
2022/03/26 11:37:29;;;;;;;39.83;25.73;;;16.70;59.10;;;;;;4911094;29;20060;-72
2022/03/26 11:40:01;;;;;;;37.03;24.08;;;16.80;58.70;;;;;;4915352;29;20040;-72
2022/03/26 11:42:39;;;;;;;38.75;24.08;;;16.80;59.10;;;;;;4906972;29;20042;-72
2022/03/26 11:51:19;;;;;;;34.08;22.67;;;16.80;56.60;;;;;;4914942;29;21034;-72
2022/03/26 11:53:58;;;;;;;39.67;23.20;;;16.90;56.60;;;;;;4934827;29;20070;-72
2022/03/26 11:56:31;;;;;;;34.17;21.98;;;16.90;56.00;;;;;;4935014;29;20048;-73
2022/03/26 11:59:06;;;;;;;33.25;22.20;;;17.00;54.10;;;;;;4913054;29;20055;-73
2022/03/26 12:01:39;;;;;;;35.60;22.98;;;17.00;54.40;;;;;;4935237;29;20129;-73
2022/03/26 12:04:18;;;;;;;37.85;22.73;;;17.00;53.50;;;;;;4918715;29;20036;-73
2022/03/26 12:06:54;;;;;;;37.42;23.95;;;17.10;54.10;;;;;;4918280;29;20042;-72
2022/03/26 12:09:34;;;;;;;33.50;23.27;;;17.10;53.70;;;;;;4911114;29;20495;-72
2022/03/26 12:12:12;;;;;;;35.15;22.42;;;17.10;53.80;;;;;;4921497;29;20044;-73
2022/03/26 12:15:03;;;;;;;36.42;21.60;;;17.20;53.00;;;;;;4911459;29;20059;-73
2022/03/26 12:17:46;;;;;;;33.08;22.80;;;17.30;53.40;;;;;;4911777;29;20079;-72
2022/03/26 12:20:47;;;;;;;41.92;22.42;;;17.40;52.40;;;;;;4920059;29;20063;-72
2022/03/26 12:23:19;;;;;;;36.15;23.40;;;17.60;53.50;;;;;;4924028;29;20083;-73
2022/03/26 12:26:00;;;;;;;37.40;23.40;;;17.70;52.60;;;;;;4892199;29;20056;-72
2022/03/26 12:28:31;;;;;;;38.63;23.70;;;17.80;50.60;;;;;;4910808;29;20040;-72
2022/03/26 12:31:06;;;;;;;32.35;21.75;;;17.80;51.50;;;;;;4914173;29;20051;-72
2022/03/26 12:33:43;;;;;;;36.83;23.63;;;17.80;50.40;;;;;;4909826;29;20411;-72
2022/03/26 12:36:13;;;;;;;37.72;23.13;;;17.80;50.50;;;;;;4913335;29;20051;-72
2022/03/26 12:38:46;;;;;;;33.90;22.25;;;17.80;51.90;;;;;;4921558;29;20056;-73
2022/03/26 12:41:19;;;;;;;35.90;23.80;;;18.00;51.70;;;;;;4909600;29;20419;-72
2022/03/26 12:43:56;;;;;;;33.03;21.75;;;18.10;50.50;;;;;;4910655;29;20112;-71
2022/03/26 12:46:32;;;;;;;32.22;21.38;;;18.20;49.20;;;;;;4905259;29;20489;-72
2022/03/26 12:49:22;;;;;;;35.95;22.95;;;18.30;48.50;;;;;;4908350;29;20744;-72
2022/03/26 12:51:55;;;;;;;31.88;21.73;;;18.40;49.00;;;;;;4910368;29;20050;-72
2022/03/26 12:54:31;;;;;;;32.10;21.55;;;18.40;48.10;;;;;;4912471;29;20044;-72
2022/03/26 12:57:03;;;;;;;32.83;23.10;;;18.40;48.20;;;;;;4913631;29;20052;-73
2022/03/26 12:59:30;;;;;;;36.00;23.98;;;18.50;47.60;;;;;;4914227;29;20076;-72
2022/03/26 13:02:02;;;;;;;31.33;21.48;;;18.60;48.00;;;;;;4898293;29;20499;-72
2022/03/26 13:04:37;;;;;;;29.02;21.02;;;18.60;47.50;;;;;;4913800;29;20135;-72
2022/03/26 13:07:09;;;;;;;33.38;22.67;;;18.70;47.60;;;;;;4909436;29;20054;-74
2022/03/26 13:09:41;;;;;;;30.13;21.58;;;18.70;47.50;;;;;;4898981;29;20072;-72